NOZ553 EKVG-ENBO
Flight info
| Callsign | NOZ553 |
|---|---|
| Flight time | N/A |
| Altitude | 35000 |
| Route | ODEVA DCT 64N000E/N0434F350 DCT XELRU DCT ODNOS |
| Aircraft | B738/M-SDE2E3FGHIRWXY/LB1 |
Departure
| Time | 2026-04-30 13:58 |
|---|---|
| Airport | Vágar Airport (EKVG) |
Arrival
| Time | N/A |
|---|---|
| Airport | Bodø Airport (ENBO) |
| Time | Latitude | Longitude | Altitude | Speed | Heading |
|---|---|---|---|---|---|
| 2026-04-30 13:40 | 62.06667 | -7.27874 | 288 ft | 0 kts | 29° |
| 2026-04-30 13:50 | 62.06661 | -7.27881 | 288 ft | 1 kts | 30° |
| 2026-04-30 13:50 | 62.06637 | -7.27889 | 288 ft | 2 kts | 339° |
| 2026-04-30 13:50 | 62.06625 | -7.27872 | 288 ft | 2 kts | 308° |
| 2026-04-30 13:51 | 62.06621 | -7.27859 | 288 ft | 1 kts | 293° |
| 2026-04-30 13:51 | 62.06620 | -7.27851 | 288 ft | 0 kts | 297° |
| 2026-04-30 13:54 | 62.06627 | -7.27881 | 288 ft | 6 kts | 295° |
| 2026-04-30 13:54 | 62.06644 | -7.27980 | 287 ft | 8 kts | 287° |
| 2026-04-30 13:54 | 62.06637 | -7.28075 | 287 ft | 5 kts | 216° |
| 2026-04-30 13:54 | 62.06600 | -7.28087 | 288 ft | 6 kts | 180° |
| 2026-04-30 13:55 | 62.06538 | -7.28110 | 288 ft | 9 kts | 200° |
| 2026-04-30 13:55 | 62.06491 | -7.28158 | 289 ft | 6 kts | 224° |
| 2026-04-30 13:55 | 62.06504 | -7.28308 | 288 ft | 13 kts | 301° |
| 2026-04-30 13:55 | 62.06554 | -7.28507 | 285 ft | 16 kts | 297° |
| 2026-04-30 13:56 | 62.06609 | -7.28733 | 280 ft | 18 kts | 297° |
| 2026-04-30 13:56 | 62.06670 | -7.28981 | 276 ft | 19 kts | 298° |
| 2026-04-30 13:56 | 62.06703 | -7.29145 | 276 ft | 6 kts | 273° |
| 2026-04-30 13:56 | 62.06715 | -7.29212 | 276 ft | 4 kts | 336° |
| 2026-04-30 13:57 | 62.06731 | -7.29189 | 276 ft | 3 kts | 83° |
| 2026-04-30 13:57 | 62.06717 | -7.29145 | 276 ft | 4 kts | 136° |
| 2026-04-30 13:57 | 62.06699 | -7.29094 | 276 ft | 6 kts | 119° |
| 2026-04-30 13:57 | 62.06605 | -7.28717 | 280 ft | 64 kts | 118° |
| 2026-04-30 13:58 | 62.06286 | -7.27420 | 287 ft | 132 kts | 119° |
| 2026-04-30 13:58 | 62.05155 | -7.23148 | 814 ft | 182 kts | 125° |
| 2026-04-30 13:58 | 62.04499 | -7.20758 | 1205 ft | 196 kts | 124° |
| 2026-04-30 13:59 | 62.03827 | -7.17960 | 1822 ft | 225 kts | 124° |
| 2026-04-30 13:59 | 62.03079 | -7.14881 | 2279 ft | 245 kts | 123° |
| 2026-04-30 13:59 | 62.02286 | -7.11529 | 2860 ft | 264 kts | 122° |
| 2026-04-30 13:59 | 62.01430 | -7.07890 | 3374 ft | 282 kts | 123° |
| 2026-04-30 14:00 | 62.00538 | -7.04231 | 4352 ft | 281 kts | 123° |
| 2026-04-30 14:00 | 61.98846 | -6.96915 | 6412 ft | 276 kts | 123° |
| 2026-04-30 14:00 | 61.98022 | -6.93300 | 7235 ft | 280 kts | 124° |
| 2026-04-30 14:01 | 61.97161 | -6.89567 | 8019 ft | 285 kts | 124° |
| 2026-04-30 14:01 | 61.96279 | -6.85754 | 8814 ft | 289 kts | 124° |
| 2026-04-30 14:01 | 61.95388 | -6.81910 | 9495 ft | 297 kts | 124° |
| 2026-04-30 14:01 | 61.94481 | -6.77999 | 10295 ft | 299 kts | 124° |
| 2026-04-30 14:02 | 61.93551 | -6.74017 | 10653 ft | 315 kts | 124° |
| 2026-04-30 14:02 | 61.92554 | -6.69673 | 10940 ft | 335 kts | 121° |
| 2026-04-30 14:02 | 61.91841 | -6.64911 | 11443 ft | 354 kts | 105° |
| 2026-04-30 14:02 | 61.91805 | -6.59608 | 12118 ft | 369 kts | 86° |
| 2026-04-30 14:03 | 61.92573 | -6.54350 | 12791 ft | 380 kts | 66° |
| 2026-04-30 14:03 | 61.94003 | -6.49606 | 13456 ft | 385 kts | 54° |
| 2026-04-30 14:03 | 61.95656 | -6.45117 | 14007 ft | 391 kts | 51° |
| 2026-04-30 14:03 | 61.97391 | -6.40639 | 14509 ft | 399 kts | 52° |
| 2026-04-30 14:04 | 61.99147 | -6.36076 | 15000 ft | 406 kts | 52° |
| 2026-04-30 14:04 | 62.00919 | -6.31364 | 15610 ft | 408 kts | 54° |
| 2026-04-30 14:04 | 62.02660 | -6.26621 | 16151 ft | 412 kts | 55° |
| 2026-04-30 14:04 | 62.04411 | -6.21779 | 16669 ft | 417 kts | 55° |
| 2026-04-30 14:05 | 62.06168 | -6.16877 | 17254 ft | 419 kts | 55° |
| 2026-04-30 14:05 | 62.07924 | -6.11958 | 17737 ft | 423 kts | 55° |
| 2026-04-30 14:05 | 62.09722 | -6.06913 | 18230 ft | 428 kts | 55° |
| 2026-04-30 14:05 | 62.11504 | -6.01902 | 18716 ft | 431 kts | 56° |
| 2026-04-30 14:06 | 62.13320 | -5.96788 | 19199 ft | 435 kts | 56° |
| 2026-04-30 14:06 | 62.16962 | -5.86514 | 20217 ft | 440 kts | 56° |
| 2026-04-30 14:07 | 62.20659 | -5.76042 | 21190 ft | 446 kts | 55° |
| 2026-04-30 14:07 | 62.22526 | -5.70742 | 21682 ft | 448 kts | 55° |
| 2026-04-30 14:07 | 62.24404 | -5.65396 | 22100 ft | 452 kts | 55° |
| 2026-04-30 14:08 | 62.28183 | -5.54591 | 22956 ft | 458 kts | 55° |
| 2026-04-30 14:08 | 62.30084 | -5.49127 | 23317 ft | 462 kts | 56° |
| 2026-04-30 14:08 | 62.33945 | -5.38003 | 24203 ft | 467 kts | 55° |
| 2026-04-30 14:09 | 62.35862 | -5.32471 | 24673 ft | 468 kts | 56° |
| 2026-04-30 14:09 | 62.37804 | -5.26854 | 25042 ft | 472 kts | 56° |
| 2026-04-30 14:09 | 62.41732 | -5.15437 | 25844 ft | 478 kts | 56° |
| 2026-04-30 14:10 | 62.43709 | -5.09661 | 26167 ft | 482 kts | 56° |
| 2026-04-30 14:10 | 62.45686 | -5.03874 | 26663 ft | 482 kts | 56° |
| 2026-04-30 14:10 | 62.47663 | -4.98074 | 26973 ft | 486 kts | 56° |
| 2026-04-30 14:10 | 62.49667 | -4.92178 | 27295 ft | 490 kts | 56° |
| 2026-04-30 14:11 | 62.51688 | -4.86238 | 27741 ft | 491 kts | 56° |
| 2026-04-30 14:11 | 62.53703 | -4.80302 | 28105 ft | 493 kts | 56° |
| 2026-04-30 14:11 | 62.55737 | -4.74283 | 28482 ft | 495 kts | 56° |
| 2026-04-30 14:11 | 62.57748 | -4.68302 | 28888 ft | 496 kts | 55° |
| 2026-04-30 14:12 | 62.59785 | -4.62224 | 29265 ft | 497 kts | 55° |
| 2026-04-30 14:12 | 62.61817 | -4.56148 | 29524 ft | 502 kts | 55° |
| 2026-04-30 14:12 | 62.63837 | -4.50092 | 29915 ft | 502 kts | 55° |
| 2026-04-30 14:12 | 62.65892 | -4.43909 | 30168 ft | 506 kts | 55° |
| 2026-04-30 14:13 | 62.67950 | -4.37704 | 30460 ft | 509 kts | 54° |
| 2026-04-30 14:13 | 62.69989 | -4.31544 | 30798 ft | 509 kts | 56° |
| 2026-04-30 14:13 | 62.72071 | -4.25241 | 31035 ft | 513 kts | 56° |
| 2026-04-30 14:13 | 62.74125 | -4.19005 | 31381 ft | 513 kts | 56° |
| 2026-04-30 14:14 | 62.76220 | -4.12622 | 31650 ft | 515 kts | 56° |
| 2026-04-30 14:14 | 62.78275 | -4.06336 | 31889 ft | 518 kts | 56° |
| 2026-04-30 14:14 | 62.80365 | -3.99949 | 32225 ft | 518 kts | 56° |
| 2026-04-30 14:14 | 62.82469 | -3.93514 | 32685 ft | 515 kts | 56° |
| 2026-04-30 14:15 | 62.84513 | -3.87247 | 33034 ft | 514 kts | 56° |
| 2026-04-30 14:15 | 62.86570 | -3.80916 | 33478 ft | 511 kts | 56° |
| 2026-04-30 14:15 | 62.88616 | -3.74584 | 33838 ft | 510 kts | 57° |
| 2026-04-30 14:15 | 62.90655 | -3.68246 | 34250 ft | 507 kts | 57° |
| 2026-04-30 14:16 | 62.92675 | -3.61956 | 34449 ft | 509 kts | 57° |
| 2026-04-30 14:16 | 62.94704 | -3.55614 | 34704 ft | 510 kts | 57° |
| 2026-04-30 14:16 | 62.96719 | -3.49304 | 34961 ft | 511 kts | 57° |
| 2026-04-30 14:16 | 62.98768 | -3.42875 | 35123 ft | 511 kts | 57° |
| 2026-04-30 14:17 | 63.00794 | -3.36494 | 35134 ft | 512 kts | 56° |
| 2026-04-30 14:17 | 63.04796 | -3.23819 | 35143 ft | 506 kts | 58° |
| 2026-04-30 14:18 | 63.08787 | -3.11117 | 35130 ft | 505 kts | 58° |
| 2026-04-30 14:18 | 63.14750 | -2.91998 | 35127 ft | 506 kts | 58° |
| 2026-04-30 14:19 | 63.20673 | -2.72869 | 35136 ft | 507 kts | 57° |
| 2026-04-30 14:20 | 63.24652 | -2.59940 | 35137 ft | 507 kts | 58° |
| 2026-04-30 14:20 | 63.30569 | -2.40613 | 35123 ft | 509 kts | 57° |
| 2026-04-30 14:21 | 63.34495 | -2.27671 | 35123 ft | 508 kts | 58° |
| 2026-04-30 14:22 | 63.40391 | -2.08096 | 35136 ft | 508 kts | 58° |
| 2026-04-30 14:22 | 63.46250 | -1.88495 | 35138 ft | 509 kts | 58° |
| 2026-04-30 14:23 | 63.54019 | -1.62179 | 35127 ft | 508 kts | 58° |
| 2026-04-30 14:24 | 63.59797 | -1.42440 | 35135 ft | 507 kts | 57° |
| 2026-04-30 14:25 | 63.67464 | -1.15929 | 35148 ft | 507 kts | 59° |
| 2026-04-30 14:26 | 63.73154 | -0.96021 | 35143 ft | 506 kts | 59° |
| 2026-04-30 14:27 | 63.78847 | -0.76023 | 35144 ft | 506 kts | 58° |
| 2026-04-30 14:27 | 63.82610 | -0.62731 | 35118 ft | 507 kts | 58° |
| 2026-04-30 14:28 | 63.88275 | -0.42509 | 35141 ft | 509 kts | 58° |
| 2026-04-30 14:28 | 63.92020 | -0.29023 | 35146 ft | 508 kts | 59° |
| 2026-04-30 14:29 | 63.99519 | -0.01800 | 35162 ft | 511 kts | 59° |
| 2026-04-30 14:31 | 64.08974 | 0.32316 | 35172 ft | 508 kts | 58° |
| 2026-04-30 14:31 | 64.14621 | 0.52749 | 35167 ft | 508 kts | 58° |
| 2026-04-30 14:32 | 64.20213 | 0.73252 | 35144 ft | 508 kts | 59° |
| 2026-04-30 14:33 | 64.23904 | 0.86952 | 35154 ft | 508 kts | 59° |
| 2026-04-30 14:33 | 64.29432 | 1.07611 | 35147 ft | 508 kts | 59° |
| 2026-04-30 14:34 | 64.33095 | 1.21458 | 35141 ft | 508 kts | 59° |
| 2026-04-30 14:34 | 64.36754 | 1.35301 | 35145 ft | 508 kts | 59° |
| 2026-04-30 14:35 | 64.42233 | 1.56131 | 35169 ft | 506 kts | 58° |
| 2026-04-30 14:36 | 64.45854 | 1.70014 | 35158 ft | 507 kts | 59° |
| 2026-04-30 14:36 | 64.49461 | 1.83963 | 35163 ft | 507 kts | 59° |
| 2026-04-30 14:37 | 64.53059 | 1.97956 | 35144 ft | 507 kts | 59° |
| 2026-04-30 14:37 | 64.56662 | 2.12027 | 35145 ft | 505 kts | 60° |
| 2026-04-30 14:38 | 64.60211 | 2.26028 | 35151 ft | 505 kts | 59° |
| 2026-04-30 14:38 | 64.63750 | 2.40072 | 35149 ft | 505 kts | 60° |
| 2026-04-30 14:39 | 64.67273 | 2.54180 | 35153 ft | 504 kts | 59° |
| 2026-04-30 14:39 | 64.70784 | 2.68271 | 35146 ft | 502 kts | 60° |
| 2026-04-30 14:40 | 64.76028 | 2.89438 | 35152 ft | 504 kts | 60° |
| 2026-04-30 14:40 | 64.79502 | 3.03597 | 35160 ft | 504 kts | 60° |
| 2026-04-30 14:41 | 64.82985 | 3.17906 | 35164 ft | 503 kts | 60° |
| 2026-04-30 14:41 | 64.86424 | 3.32111 | 35154 ft | 503 kts | 60° |
| 2026-04-30 14:42 | 64.89862 | 3.46426 | 35154 ft | 503 kts | 60° |
| 2026-04-30 14:42 | 64.93275 | 3.60722 | 35154 ft | 503 kts | 60° |
| 2026-04-30 14:43 | 64.96690 | 3.75090 | 35125 ft | 504 kts | 61° |
| 2026-04-30 14:43 | 65.00065 | 3.89421 | 35146 ft | 503 kts | 61° |
| 2026-04-30 14:44 | 65.03445 | 4.03864 | 35159 ft | 502 kts | 61° |
| 2026-04-30 14:44 | 65.06808 | 4.18330 | 35157 ft | 502 kts | 60° |
| 2026-04-30 14:45 | 65.10141 | 4.32784 | 35150 ft | 502 kts | 61° |
| 2026-04-30 14:45 | 65.13457 | 4.47213 | 35158 ft | 500 kts | 61° |
| 2026-04-30 14:46 | 65.16750 | 4.61651 | 35150 ft | 500 kts | 61° |
| 2026-04-30 14:46 | 65.20051 | 4.76250 | 35150 ft | 500 kts | 62° |
| 2026-04-30 14:47 | 65.23308 | 4.90738 | 35167 ft | 499 kts | 62° |
| 2026-04-30 14:47 | 65.26568 | 5.05316 | 35172 ft | 500 kts | 62° |
| 2026-04-30 14:48 | 65.29806 | 5.19876 | 35150 ft | 501 kts | 61° |
| 2026-04-30 14:48 | 65.33038 | 5.34523 | 35161 ft | 499 kts | 62° |
| 2026-04-30 14:49 | 65.36259 | 5.49218 | 35146 ft | 500 kts | 62° |
| 2026-04-30 14:49 | 65.39452 | 5.63904 | 35146 ft | 500 kts | 62° |
| 2026-04-30 14:50 | 65.44216 | 5.85992 | 35161 ft | 497 kts | 62° |
| 2026-04-30 14:51 | 65.48917 | 6.08040 | 35147 ft | 497 kts | 62° |
| 2026-04-30 14:52 | 65.53596 | 6.30215 | 35152 ft | 497 kts | 63° |
| 2026-04-30 14:52 | 65.58225 | 6.52428 | 35165 ft | 496 kts | 63° |
| 2026-04-30 14:53 | 65.62844 | 6.74768 | 35160 ft | 497 kts | 63° |
| 2026-04-30 14:54 | 65.67957 | 7.05713 | 35158 ft | 498 kts | 75° |
| 2026-04-30 14:55 | 65.70597 | 7.29853 | 35165 ft | 496 kts | 76° |
| 2026-04-30 14:56 | 65.74123 | 7.62172 | 35153 ft | 495 kts | 75° |
| 2026-04-30 14:57 | 65.76767 | 7.86202 | 35148 ft | 493 kts | 76° |
| 2026-04-30 14:58 | 65.80252 | 8.18309 | 35171 ft | 493 kts | 76° |
| 2026-04-30 14:58 | 65.82828 | 8.42495 | 35176 ft | 492 kts | 76° |
| 2026-04-30 15:00 | 65.87015 | 8.82747 | 35161 ft | 493 kts | 76° |
| 2026-04-30 15:01 | 65.90299 | 9.15123 | 35174 ft | 494 kts | 76° |
| 2026-04-30 15:01 | 65.92721 | 9.39484 | 35190 ft | 492 kts | 76° |
| 2026-04-30 15:02 | 65.94318 | 9.55787 | 35185 ft | 493 kts | 76° |
| 2026-04-30 15:03 | 65.98208 | 9.96441 | 35222 ft | 492 kts | 77° |
| 2026-04-30 15:04 | 66.02014 | 10.37378 | 35213 ft | 492 kts | 77° |
| 2026-04-30 15:06 | 66.05681 | 10.78130 | 35204 ft | 491 kts | 77° |
| 2026-04-30 15:07 | 66.08537 | 11.10862 | 35209 ft | 490 kts | 77° |
| 2026-04-30 15:08 | 66.11327 | 11.43639 | 35206 ft | 488 kts | 77° |
| 2026-04-30 15:09 | 66.14694 | 11.84434 | 35245 ft | 483 kts | 78° |
| 2026-04-30 15:09 | 66.15984 | 12.00405 | 34684 ft | 471 kts | 77° |
| 2026-04-30 15:10 | 66.17233 | 12.16131 | 33699 ft | 468 kts | 77° |
| 2026-04-30 15:11 | 66.19666 | 12.47448 | 31643 ft | 463 kts | 77° |
| 2026-04-30 15:11 | 66.20847 | 12.62946 | 30608 ft | 460 kts | 77° |
| 2026-04-30 15:12 | 66.22578 | 12.86059 | 29044 ft | 455 kts | 78° |
| 2026-04-30 15:13 | 66.23703 | 13.01352 | 28011 ft | 451 kts | 78° |
| 2026-04-30 15:14 | 66.25919 | 13.32085 | 25476 ft | 455 kts | 78° |
| 2026-04-30 15:14 | 66.27483 | 13.54541 | 23668 ft | 429 kts | 77° |
| 2026-04-30 15:16 | 66.33765 | 13.83686 | 20714 ft | 363 kts | 25° |
| 2026-04-30 15:17 | 66.42427 | 13.96134 | 18351 ft | 367 kts | 21° |
| 2026-04-30 15:18 | 66.53279 | 14.11843 | 16144 ft | 359 kts | 22° |
| 2026-04-30 15:19 | 66.59647 | 14.21159 | 14935 ft | 350 kts | 22° |